sensor_id;sensor_type;location;lat;lon;timestamp;pressure;altitude;pressure_sealevel;temperature;humidity
59367;BME280;45163;47.690;11.770;2023-03-21T00:00:36;93549.25;;;5.43;100.00
59367;BME280;45163;47.690;11.770;2023-03-21T00:03:03;93537.59;;;5.50;100.00
59367;BME280;45163;47.690;11.770;2023-03-21T00:05:29;93539.13;;;5.51;100.00
59367;BME280;45163;47.690;11.770;2023-03-21T00:07:55;93531.75;;;5.52;100.00
59367;BME280;45163;47.690;11.770;2023-03-21T00:10:22;93530.22;;;5.50;100.00
59367;BME280;45163;47.690;11.770;2023-03-21T00:12:48;93531.41;;;5.49;100.00
59367;BME280;45163;47.690;11.770;2023-03-21T00:15:24;93530.22;;;5.50;100.00
59367;BME280;45163;47.690;11.770;2023-03-21T00:17:57;93523.25;;;5.53;100.00
59367;BME280;45163;47.690;11.770;2023-03-21T00:20:31;93522.50;;;5.53;100.00
59367;BME280;45163;47.690;11.770;2023-03-21T00:23:03;93518.22;;;5.52;100.00
59367;BME280;45163;47.690;11.770;2023-03-21T00:25:29;93526.34;;;5.52;100.00
59367;BME280;45163;47.690;11.770;2023-03-21T00:27:57;93515.91;;;5.54;100.00
59367;BME280;45163;47.690;11.770;2023-03-21T00:30:23;93519.38;;;5.54;100.00
59367;BME280;45163;47.690;11.770;2023-03-21T00:32:49;93510.50;;;5.54;100.00
59367;BME280;45163;47.690;11.770;2023-03-21T00:35:16;93509.75;;;5.49;100.00
59367;BME280;45163;47.690;11.770;2023-03-21T00:37:42;93512.81;;;5.52;100.00
59367;BME280;45163;47.690;11.770;2023-03-21T00:40:08;93505.88;;;5.50;100.00
59367;BME280;45163;47.690;11.770;2023-03-21T00:42:35;93501.59;;;5.57;100.00
59367;BME280;45163;47.690;11.770;2023-03-21T00:45:03;93511.66;;;5.56;100.00
59367;BME280;45163;47.690;11.770;2023-03-21T00:47:29;93506.63;;;5.55;100.00
59367;BME280;45163;47.690;11.770;2023-03-21T00:49:55;93500.84;;;5.53;100.00
59367;BME280;45163;47.690;11.770;2023-03-21T00:52:22;93501.59;;;5.53;100.00
59367;BME280;45163;47.690;11.770;2023-03-21T00:54:48;93498.91;;;5.49;100.00
59367;BME280;45163;47.690;11.770;2023-03-21T00:57:14;93489.63;;;5.47;100.00
59367;BME280;45163;47.690;11.770;2023-03-21T00:59:40;93493.91;;;5.48;100.00
59367;BME280;45163;47.690;11.770;2023-03-21T01:02:06;93485.81;;;5.44;100.00
59367;BME280;45163;47.690;11.770;2023-03-21T01:04:32;93484.97;;;5.51;100.00
59367;BME280;45163;47.690;11.770;2023-03-21T01:06:59;93484.63;;;5.49;100.00
59367;BME280;45163;47.690;11.770;2023-03-21T01:09:25;93485.00;;;5.47;100.00
59367;BME280;45163;47.690;11.770;2023-03-21T01:11:52;93485.03;;;5.44;100.00
59367;BME280;45163;47.690;11.770;2023-03-21T01:14:19;93481.91;;;5.49;100.00
59367;BME280;45163;47.690;11.770;2023-03-21T01:16:46;93488.50;;;5.48;100.00
59367;BME280;45163;47.690;11.770;2023-03-21T01:19:14;93480.72;;;5.54;100.00
59367;BME280;45163;47.690;11.770;2023-03-21T01:21:42;93476.03;;;5.58;100.00
59367;BME280;45163;47.690;11.770;2023-03-21T01:24:08;93476.84;;;5.55;100.00
59367;BME280;45163;47.690;11.770;2023-03-21T01:26:36;93474.88;;;5.55;100.00
59367;BME280;45163;47.690;11.770;2023-03-21T01:29:04;93479.19;;;5.53;100.00
59367;BME280;45163;47.690;11.770;2023-03-21T01:31:30;93478.41;;;5.52;100.00
59367;BME280;45163;47.690;11.770;2023-03-21T01:33:56;93475.31;;;5.50;100.00
59367;BME280;45163;47.690;11.770;2023-03-21T01:36:24;93468.72;;;5.51;100.00
59367;BME280;45163;47.690;11.770;2023-03-21T01:38:51;93477.28;;;5.46;100.00
59367;BME280;45163;47.690;11.770;2023-03-21T01:41:20;93465.28;;;5.47;100.00
59367;BME280;45163;47.690;11.770;2023-03-21T01:43:47;93463.34;;;5.47;100.00
59367;BME280;45163;47.690;11.770;2023-03-21T01:49:07;93457.91;;;5.47;100.00
59367;BME280;45163;47.690;11.770;2023-03-21T01:51:38;93457.91;;;5.51;100.00
59367;BME280;45163;47.690;11.770;2023-03-21T01:54:10;93454.44;;;5.50;100.00
59367;BME280;45163;47.690;11.770;2023-03-21T01:56:39;93452.09;;;5.53;100.00
59367;BME280;45163;47.690;11.770;2023-03-21T01:59:13;93451.72;;;5.50;100.00
59367;BME280;45163;47.690;11.770;2023-03-21T02:01:43;93443.22;;;5.52;100.00
59367;BME280;45163;47.690;11.770;2023-03-21T02:04:09;93437.81;;;5.52;100.00
59367;BME280;45163;47.690;11.770;2023-03-21T02:06:49;93440.41;;;5.63;100.00
59367;BME280;45163;47.690;11.770;2023-03-21T02:09:20;93433.88;;;5.60;100.00
59367;BME280;45163;47.690;11.770;2023-03-21T02:11:48;93424.94;;;5.60;100.00
59367;BME280;45163;47.690;11.770;2023-03-21T02:14:16;93430.44;;;5.56;100.00
59367;BME280;45163;47.690;11.770;2023-03-21T02:19:48;93423.47;;;5.52;100.00
59367;BME280;45163;47.690;11.770;2023-03-21T02:39:40;93419.63;;;5.53;100.00
59367;BME280;45163;47.690;11.770;2023-03-21T02:42:23;93418.44;;;5.54;100.00
59367;BME280;45163;47.690;11.770;2023-03-21T02:44:57;93418.00;;;5.59;100.00
59367;BME280;45163;47.690;11.770;2023-03-21T02:50:14;93408.72;;;5.60;100.00
59367;BME280;45163;47.690;11.770;2023-03-21T02:52:44;93400.63;;;5.56;100.00
59367;BME280;45163;47.690;11.770;2023-03-21T02:55:14;93410.72;;;5.52;100.00
59367;BME280;45163;47.690;11.770;2023-03-21T02:57:44;93413.06;;;5.50;100.00
59367;BME280;45163;47.690;11.770;2023-03-21T03:00:35;93415.75;;;5.50;100.00
59367;BME280;45163;47.690;11.770;2023-03-21T03:03:01;93411.91;;;5.47;100.00
59367;BME280;45163;47.690;11.770;2023-03-21T03:05:33;93416.97;;;5.45;100.00
59367;BME280;45163;47.690;11.770;2023-03-21T03:18:53;93419.34;;;5.40;100.00
59367;BME280;45163;47.690;11.770;2023-03-21T03:21:21;93421.22;;;5.43;100.00
59367;BME280;45163;47.690;11.770;2023-03-21T03:26:24;93417.69;;;5.49;100.00
59367;BME280;45163;47.690;11.770;2023-03-21T03:28:55;93421.56;;;5.52;100.00
59367;BME280;45163;47.690;11.770;2023-03-21T03:31:27;93410.59;;;5.66;100.00
59367;BME280;45163;47.690;11.770;2023-03-21T03:33:58;93412.22;;;5.60;100.00
59367;BME280;45163;47.690;11.770;2023-03-21T03:36:29;93413.00;;;5.57;100.00
59367;BME280;45163;47.690;11.770;2023-03-21T03:39:01;93407.97;;;5.56;100.00
59367;BME280;45163;47.690;11.770;2023-03-21T03:41:30;93410.31;;;5.54;100.00
59367;BME280;45163;47.690;11.770;2023-03-21T03:43:59;93412.25;;;5.53;100.00
59367;BME280;45163;47.690;11.770;2023-03-21T03:46:31;93413.03;;;5.54;100.00
59367;BME280;45163;47.690;11.770;2023-03-21T03:49:04;93416.97;;;5.45;100.00
59367;BME280;45163;47.690;11.770;2023-03-21T03:54:15;93415.81;;;5.43;100.00
59367;BME280;45163;47.690;11.770;2023-03-21T03:56:43;93414.25;;;5.45;100.00
59367;BME280;45163;47.690;11.770;2023-03-21T03:59:09;93410.75;;;5.48;100.00
59367;BME280;45163;47.690;11.770;2023-03-21T04:01:35;93415.03;;;5.42;100.00
59367;BME280;45163;47.690;11.770;2023-03-21T04:04:02;93411.22;;;5.40;100.00
59367;BME280;45163;47.690;11.770;2023-03-21T04:06:28;93408.13;;;5.38;100.00
59367;BME280;45163;47.690;11.770;2023-03-21T04:08:55;93409.31;;;5.33;100.00
59367;BME280;45163;47.690;11.770;2023-03-21T04:11:21;93411.63;;;5.35;100.00
59367;BME280;45163;47.690;11.770;2023-03-21T04:13:47;93407.38;;;5.34;100.00
59367;BME280;45163;47.690;11.770;2023-03-21T04:16:13;93405.09;;;5.32;100.00
59367;BME280;45163;47.690;11.770;2023-03-21T04:18:40;93410.84;;;5.34;100.00
59367;BME280;45163;47.690;11.770;2023-03-21T04:21:10;93408.91;;;5.35;100.00
59367;BME280;45163;47.690;11.770;2023-03-21T04:23:38;93413.94;;;5.36;100.00
59367;BME280;45163;47.690;11.770;2023-03-21T04:26:05;93413.94;;;5.36;100.00
59367;BME280;45163;47.690;11.770;2023-03-21T04:28:32;93411.25;;;5.36;100.00
59367;BME280;45163;47.690;11.770;2023-03-21T04:30:58;93411.25;;;5.36;100.00
59367;BME280;45163;47.690;11.770;2023-03-21T04:33:24;93407.78;;;5.32;100.00
59367;BME280;45163;47.690;11.770;2023-03-21T04:35:51;93405.84;;;5.33;100.00
59367;BME280;45163;47.690;11.770;2023-03-21T04:38:24;93405.81;;;5.36;100.00
59367;BME280;45163;47.690;11.770;2023-03-21T04:40:56;93405.47;;;5.31;100.00
59367;BME280;45163;47.690;11.770;2023-03-21T04:43:22;93409.34;;;5.30;100.00
59367;BME280;45163;47.690;11.770;2023-03-21T04:45:49;93410.91;;;5.27;100.00
59367;BME280;45163;47.690;11.770;2023-03-21T04:48:15;93410.53;;;5.25;100.00
59367;BME280;45163;47.690;11.770;2023-03-21T04:50:45;93405.53;;;5.23;100.00
59367;BME280;45163;47.690;11.770;2023-03-21T04:53:11;93409.00;;;5.24;100.00
59367;BME280;45163;47.690;11.770;2023-03-21T04:55:37;93403.59;;;5.24;100.00
59367;BME280;45163;47.690;11.770;2023-03-21T04:58:03;93402.06;;;5.23;100.00
59367;BME280;45163;47.690;11.770;2023-03-21T05:00:30;93406.31;;;5.20;100.00
59367;BME280;45163;47.690;11.770;2023-03-21T05:02:57;93406.34;;;5.17;100.00
59367;BME280;45163;47.690;11.770;2023-03-21T05:05:23;93407.50;;;5.16;100.00
59367;BME280;45163;47.690;11.770;2023-03-21T05:07:50;93407.09;;;5.17;100.00
59367;BME280;45163;47.690;11.770;2023-03-21T05:10:16;93393.59;;;5.14;100.00
59367;BME280;45163;47.690;11.770;2023-03-21T05:12:42;93399.41;;;5.12;100.00
59367;BME280;45163;47.690;11.770;2023-03-21T05:15:08;93400.94;;;5.13;100.00
59367;BME280;45163;47.690;11.770;2023-03-21T05:17:34;93397.88;;;5.11;100.00
59367;BME280;45163;47.690;11.770;2023-03-21T05:20:01;93392.06;;;5.13;100.00
59367;BME280;45163;47.690;11.770;2023-03-21T05:22:29;93402.13;;;5.12;100.00
59367;BME280;45163;47.690;11.770;2023-03-21T05:25:07;93393.66;;;5.10;100.00
59367;BME280;45163;47.690;11.770;2023-03-21T05:27:35;93394.34;;;5.18;100.00
59367;BME280;45163;47.690;11.770;2023-03-21T05:30:05;93394.72;;;5.20;100.00
59367;BME280;45163;47.690;11.770;2023-03-21T05:32:32;93398.19;;;5.24;100.00
59367;BME280;45163;47.690;11.770;2023-03-21T05:34:58;93394.25;;;5.32;100.00
59367;BME280;45163;47.690;11.770;2023-03-21T05:37:24;93397.72;;;5.33;100.00
59367;BME280;45163;47.690;11.770;2023-03-21T05:39:50;93398.06;;;5.38;100.00
59367;BME280;45163;47.690;11.770;2023-03-21T05:42:17;93395.31;;;5.42;100.00
59367;BME280;45163;47.690;11.770;2023-03-21T05:44:44;93402.28;;;5.43;100.00
59367;BME280;45163;47.690;11.770;2023-03-21T05:47:15;93399.16;;;5.48;100.00
59367;BME280;45163;47.690;11.770;2023-03-21T05:49:41;93393.75;;;5.48;100.00
59367;BME280;45163;47.690;11.770;2023-03-21T05:52:08;93402.63;;;5.48;100.00
59367;BME280;45163;47.690;11.770;2023-03-21T05:54:34;93401.47;;;5.49;100.00
59367;BME280;45163;47.690;11.770;2023-03-21T05:57:02;93397.13;;;5.56;100.00
59367;BME280;45163;47.690;11.770;2023-03-21T05:59:28;93400.59;;;5.60;100.00
59367;BME280;45163;47.690;11.770;2023-03-21T06:01:54;93394.38;;;5.63;100.00
59367;BME280;45163;47.690;11.770;2023-03-21T06:04:20;93391.66;;;5.66;100.00
59367;BME280;45163;47.690;11.770;2023-03-21T06:06:46;93401.69;;;5.69;100.00
59367;BME280;45163;47.690;11.770;2023-03-21T06:09:12;93400.44;;;5.78;100.00
59367;BME280;45163;47.690;11.770;2023-03-21T06:11:39;93398.44;;;5.85;100.00
59367;BME280;45163;47.690;11.770;2023-03-21T06:14:08;93399.91;;;5.93;100.00
59367;BME280;45163;47.690;11.770;2023-03-21T06:16:34;93395.94;;;6.05;100.00
59367;BME280;45163;47.690;11.770;2023-03-21T06:19:00;93398.13;;;6.17;100.00
59367;BME280;45163;47.690;11.770;2023-03-21T06:21:26;93393.38;;;6.29;100.00
59367;BME280;45163;47.690;11.770;2023-03-21T06:23:52;93398.94;;;6.48;100.00
59367;BME280;45163;47.690;11.770;2023-03-21T06:26:18;93401.88;;;6.61;100.00
59367;BME280;45163;47.690;11.770;2023-03-21T06:28:48;93391.72;;;6.69;100.00
59367;BME280;45163;47.690;11.770;2023-03-21T06:31:15;93393.09;;;6.81;100.00
59367;BME280;45163;47.690;11.770;2023-03-21T06:33:41;93393.44;;;6.86;100.00
59367;BME280;45163;47.690;11.770;2023-03-21T06:36:08;93394.03;;;6.97;100.00
59367;BME280;45163;47.690;11.770;2023-03-21T06:38:34;93393.91;;;7.08;100.00
59367;BME280;45163;47.690;11.770;2023-03-21T06:41:04;93397.03;;;7.07;100.00
59367;BME280;45163;47.690;11.770;2023-03-21T06:43:30;93389.75;;;7.00;100.00
59367;BME280;45163;47.690;11.770;2023-03-21T06:45:57;93394.88;;;6.94;100.00
59367;BME280;45163;47.690;11.770;2023-03-21T06:48:23;93393.13;;;7.08;100.00
59367;BME280;45163;47.690;11.770;2023-03-21T06:50:49;93396.09;;;7.17;100.00
59367;BME280;45163;47.690;11.770;2023-03-21T06:53:17;93391.31;;;7.24;100.00
59367;BME280;45163;47.690;11.770;2023-03-21T06:55:54;93399.44;;;7.28;100.00
59367;BME280;45163;47.690;11.770;2023-03-21T06:58:22;93397.66;;;7.41;100.00
59367;BME280;45163;47.690;11.770;2023-03-21T07:00:48;93401.38;;;7.51;100.00
59367;BME280;45163;47.690;11.770;2023-03-21T07:03:14;93401.81;;;7.49;100.00
59367;BME280;45163;47.690;11.770;2023-03-21T07:05:41;93401.69;;;7.57;100.00
59367;BME280;45163;47.690;11.770;2023-03-21T07:08:08;93398.63;;;7.55;100.00
59367;BME280;45163;47.690;11.770;2023-03-21T07:10:41;93407.06;;;7.60;100.00
59367;BME280;45163;47.690;11.770;2023-03-21T07:13:08;93397.22;;;7.70;100.00
59367;BME280;45163;47.690;11.770;2023-03-21T07:15:34;93400.09;;;7.83;100.00
59367;BME280;45163;47.690;11.770;2023-03-21T07:18:11;93396.13;;;7.87;100.00
59367;BME280;45163;47.690;11.770;2023-03-21T07:20:37;93391.75;;;7.93;100.00
59367;BME280;45163;47.690;11.770;2023-03-21T07:23:04;93396.03;;;7.94;100.00
59367;BME280;45163;47.690;11.770;2023-03-21T07:25:30;93390.22;;;7.92;100.00
59367;BME280;45163;47.690;11.770;2023-03-21T07:27:56;93389.34;;;7.76;100.00
59367;BME280;45163;47.690;11.770;2023-03-21T07:30:22;93388.00;;;7.87;100.00
59367;BME280;45163;47.690;11.770;2023-03-21T07:32:48;93385.22;;;7.91;100.00
59367;BME280;45163;47.690;11.770;2023-03-21T07:35:16;93383.53;;;7.97;100.00
59367;BME280;45163;47.690;11.770;2023-03-21T07:37:42;93378.53;;;7.95;100.00
59367;BME280;45163;47.690;11.770;2023-03-21T07:40:09;93378.59;;;7.92;100.00
59367;BME280;45163;47.690;11.770;2023-03-21T07:42:38;93384.06;;;8.12;100.00
59367;BME280;45163;47.690;11.770;2023-03-21T07:45:05;93388.94;;;8.20;100.00
59367;BME280;45163;47.690;11.770;2023-03-21T07:47:32;93386.38;;;8.33;100.00
59367;BME280;45163;47.690;11.770;2023-03-21T07:49:59;93384.00;;;8.35;100.00
59367;BME280;45163;47.690;11.770;2023-03-21T07:52:25;93390.28;;;8.32;100.00
59367;BME280;45163;47.690;11.770;2023-03-21T07:54:51;93384.09;;;8.52;100.00
59367;BME280;45163;47.690;11.770;2023-03-21T07:57:17;93384.38;;;8.57;100.00
59367;BME280;45163;47.690;11.770;2023-03-21T07:59:43;93386.38;;;8.73;100.00
59367;BME280;45163;47.690;11.770;2023-03-21T08:02:14;93381.03;;;8.86;100.00
59367;BME280;45163;47.690;11.770;2023-03-21T08:04:40;93379.13;;;9.03;100.00
59367;BME280;45163;47.690;11.770;2023-03-21T08:07:07;93376.19;;;9.13;100.00
59367;BME280;45163;47.690;11.770;2023-03-21T08:09:33;93369.56;;;9.31;100.00
59367;BME280;45163;47.690;11.770;2023-03-21T08:11:59;93373.13;;;9.28;100.00
59367;BME280;45163;47.690;11.770;2023-03-21T08:14:25;93374.59;;;9.16;100.00
59367;BME280;45163;47.690;11.770;2023-03-21T08:16:51;93369.47;;;9.18;100.00
59367;BME280;45163;47.690;11.770;2023-03-21T08:19:17;93372.63;;;9.16;100.00
59367;BME280;45163;47.690;11.770;2023-03-21T08:21:49;93376.63;;;9.44;100.00
59367;BME280;45163;47.690;11.770;2023-03-21T08:24:16;93361.84;;;9.45;100.00
59367;BME280;45163;47.690;11.770;2023-03-21T08:26:42;93364.19;;;9.60;100.00
59367;BME280;45163;47.690;11.770;2023-03-21T08:29:12;93360.88;;;9.68;100.00
59367;BME280;45163;47.690;11.770;2023-03-21T08:31:41;93368.88;;;9.92;100.00
59367;BME280;45163;47.690;11.770;2023-03-21T08:34:07;93365.69;;;9.93;100.00
59367;BME280;45163;47.690;11.770;2023-03-21T08:36:34;93366.53;;;10.07;100.00
59367;BME280;45163;47.690;11.770;2023-03-21T08:39:04;93365.50;;;10.17;100.00
59367;BME280;45163;47.690;11.770;2023-03-21T08:41:36;93358.53;;;10.00;100.00
59367;BME280;45163;47.690;11.770;2023-03-21T08:44:03;93357.28;;;10.33;100.00
59367;BME280;45163;47.690;11.770;2023-03-21T08:46:33;93359.06;;;10.53;100.00
59367;BME280;45163;47.690;11.770;2023-03-21T08:48:59;93354.28;;;10.57;100.00
59367;BME280;45163;47.690;11.770;2023-03-21T08:51:26;93357.22;;;10.50;100.00
59367;BME280;45163;47.690;11.770;2023-03-21T08:53:52;93358.47;;;10.74;100.00
59367;BME280;45163;47.690;11.770;2023-03-21T08:56:18;93350.44;;;10.96;100.00
59367;BME280;45163;47.690;11.770;2023-03-21T08:58:46;93340.72;;;11.33;100.00
59367;BME280;45163;47.690;11.770;2023-03-21T09:01:12;93348.22;;;11.67;100.00
59367;BME280;45163;47.690;11.770;2023-03-21T09:03:41;93337.91;;;11.97;100.00
59367;BME280;45163;47.690;11.770;2023-03-21T09:06:08;93344.28;;;12.16;100.00
59367;BME280;45163;47.690;11.770;2023-03-21T09:08:37;93337.44;;;12.55;100.00
59367;BME280;45163;47.690;11.770;2023-03-21T09:11:03;93335.00;;;12.57;100.00
59367;BME280;45163;47.690;11.770;2023-03-21T09:13:29;93334.06;;;12.51;100.00
59367;BME280;45163;47.690;11.770;2023-03-21T09:15:55;93338.34;;;13.05;100.00
59367;BME280;45163;47.690;11.770;2023-03-21T09:18:26;93330.44;;;13.16;100.00
59367;BME280;45163;47.690;11.770;2023-03-21T09:21:08;93331.81;;;13.12;100.00
59367;BME280;45163;47.690;11.770;2023-03-21T09:23:38;93335.19;;;13.16;100.00
59367;BME280;45163;47.690;11.770;2023-03-21T09:26:05;93324.97;;;13.48;100.00
59367;BME280;45163;47.690;11.770;2023-03-21T09:28:32;93325.38;;;13.86;100.00
59367;BME280;45163;47.690;11.770;2023-03-21T09:30:58;93330.13;;;14.41;100.00
59367;BME280;45163;47.690;11.770;2023-03-21T09:33:27;93324.34;;;14.39;100.00
59367;BME280;45163;47.690;11.770;2023-03-21T09:35:54;93324.66;;;14.13;100.00
59367;BME280;45163;47.690;11.770;2023-03-21T09:38:21;93327.19;;;13.80;100.00
59367;BME280;45163;47.690;11.770;2023-03-21T09:41:04;93321.84;;;13.77;100.00
59367;BME280;45163;47.690;11.770;2023-03-21T09:43:41;93322.06;;;13.42;100.00
59367;BME280;45163;47.690;11.770;2023-03-21T09:46:21;93323.16;;;13.54;100.00
59367;BME280;45163;47.690;11.770;2023-03-21T09:49:00;93321.25;;;13.32;100.00
59367;BME280;45163;47.690;11.770;2023-03-21T09:51:39;93308.84;;;13.18;100.00
59367;BME280;45163;47.690;11.770;2023-03-21T09:54:14;93318.91;;;13.53;100.00
59367;BME280;45163;47.690;11.770;2023-03-21T09:56:43;93307.91;;;13.53;100.00
59367;BME280;45163;47.690;11.770;2023-03-21T09:59:19;93308.75;;;13.90;100.00
59367;BME280;45163;47.690;11.770;2023-03-21T10:01:47;93305.13;;;13.25;100.00
59367;BME280;45163;47.690;11.770;2023-03-21T10:04:15;93305.31;;;13.49;100.00
59367;BME280;45163;47.690;11.770;2023-03-21T10:06:44;93311.63;;;13.59;100.00
59367;BME280;45163;47.690;11.770;2023-03-21T10:09:18;93305.66;;;13.51;100.00
59367;BME280;45163;47.690;11.770;2023-03-21T10:12:00;93291.72;;;13.36;100.00
59367;BME280;45163;47.690;11.770;2023-03-21T10:14:30;93296.56;;;13.23;100.00
59367;BME280;45163;47.690;11.770;2023-03-21T10:17:03;93296.28;;;13.30;100.00
59367;BME280;45163;47.690;11.770;2023-03-21T10:19:33;93291.19;;;13.69;100.00
59367;BME280;45163;47.690;11.770;2023-03-21T10:22:02;93296.19;;;13.43;100.00
59367;BME280;45163;47.690;11.770;2023-03-21T10:24:31;93291.88;;;13.33;100.00
59367;BME280;45163;47.690;11.770;2023-03-21T10:26:58;93296.91;;;13.25;100.00
59367;BME280;45163;47.690;11.770;2023-03-21T10:29:30;93285.19;;;13.34;100.00
59367;BME280;45163;47.690;11.770;2023-03-21T10:31:57;93289.00;;;13.45;100.00
59367;BME280;45163;47.690;11.770;2023-03-21T10:34:35;93288.09;;;13.39;100.00
59367;BME280;45163;47.690;11.770;2023-03-21T10:37:03;93280.84;;;13.91;100.00
59367;BME280;45163;47.690;11.770;2023-03-21T10:41:56;93289.25;;;14.06;100.00
59367;BME280;45163;47.690;11.770;2023-03-21T10:44:29;93289.41;;;14.21;100.00
59367;BME280;45163;47.690;11.770;2023-03-21T10:46:57;93287.41;;;13.94;100.00
59367;BME280;45163;47.690;11.770;2023-03-21T10:49:23;93284.06;;;13.99;100.00
59367;BME280;45163;47.690;11.770;2023-03-21T10:51:54;93285.13;;;14.11;100.00
59367;BME280;45163;47.690;11.770;2023-03-21T10:54:25;93284.53;;;13.98;100.00
59367;BME280;45163;47.690;11.770;2023-03-21T10:57:07;93283.44;;;13.86;100.00
59367;BME280;45163;47.690;11.770;2023-03-21T11:02:18;93277.50;;;14.24;100.00
59367;BME280;45163;47.690;11.770;2023-03-21T11:04:45;93279.19;;;14.31;100.00
59367;BME280;45163;47.690;11.770;2023-03-21T11:07:13;93281.50;;;14.51;100.00
59367;BME280;45163;47.690;11.770;2023-03-21T11:09:55;93271.69;;;14.59;100.00
59367;BME280;45163;47.690;11.770;2023-03-21T11:12:39;93267.41;;;14.58;100.00
59367;BME280;45163;47.690;11.770;2023-03-21T11:17:50;93266.84;;;15.62;100.00
59367;BME280;45163;47.690;11.770;2023-03-21T11:20:18;93261.41;;;15.53;100.00
59367;BME280;45163;47.690;11.770;2023-03-21T11:22:45;93258.47;;;15.57;100.00
59367;BME280;45163;47.690;11.770;2023-03-21T11:25:35;93261.81;;;15.61;100.00
59367;BME280;45163;47.690;11.770;2023-03-21T11:28:11;93252.94;;;15.33;100.00
59367;BME280;45163;47.690;11.770;2023-03-21T11:30:56;93255.13;;;15.29;100.00
59367;BME280;45163;47.690;11.770;2023-03-21T11:33:31;93251.44;;;14.99;100.00
59367;BME280;45163;47.690;11.770;2023-03-21T11:38:38;93237.75;;;14.80;100.00
59367;BME280;45163;47.690;11.770;2023-03-21T11:41:05;93242.06;;;14.72;100.00
59367;BME280;45163;47.690;11.770;2023-03-21T11:43:35;93240.06;;;14.73;100.00
59367;BME280;45163;47.690;11.770;2023-03-21T11:46:06;93234.53;;;14.82;100.00
59367;BME280;45163;47.690;11.770;2023-03-21T11:48:38;93236.25;;;15.12;100.00
59367;BME280;45163;47.690;11.770;2023-03-21T11:54:13;93231.44;;;15.31;100.00
59367;BME280;45163;47.690;11.770;2023-03-21T11:56:49;93219.50;;;15.58;100.00
59367;BME280;45163;47.690;11.770;2023-03-21T11:59:44;93214.38;;;16.14;97.34
59367;BME280;45163;47.690;11.770;2023-03-21T12:05:28;93204.16;;;15.90;89.64
59367;BME280;45163;47.690;11.770;2023-03-21T12:24:26;93172.88;;;17.67;66.49
59367;BME280;45163;47.690;11.770;2023-03-21T12:46:13;93142.38;;;18.23;68.11
59367;BME280;45163;47.690;11.770;2023-03-21T12:51:17;93146.72;;;17.63;69.45
59367;BME280;45163;47.690;11.770;2023-03-21T12:56:32;93133.84;;;18.84;67.01
59367;BME280;45163;47.690;11.770;2023-03-21T12:59:22;93132.47;;;19.49;62.12
59367;BME280;45163;47.690;11.770;2023-03-21T13:01:54;93134.06;;;19.61;60.21
59367;BME280;45163;47.690;11.770;2023-03-21T13:07:18;93122.63;;;20.19;56.33
59367;BME280;45163;47.690;11.770;2023-03-21T13:09:46;93116.16;;;20.95;55.76
59367;BME280;45163;47.690;11.770;2023-03-21T13:12:33;93122.00;;;21.77;51.49
59367;BME280;45163;47.690;11.770;2023-03-21T13:17:44;93113.44;;;22.63;42.32
59367;BME280;45163;47.690;11.770;2023-03-21T13:20:31;93109.47;;;22.53;46.00
59367;BME280;45163;47.690;11.770;2023-03-21T13:23:00;93110.72;;;21.58;44.55
59367;BME280;45163;47.690;11.770;2023-03-21T13:25:29;93116.63;;;20.26;48.82
59367;BME280;45163;47.690;11.770;2023-03-21T13:28:03;93115.84;;;20.08;50.14
59367;BME280;45163;47.690;11.770;2023-03-21T13:30:31;93110.97;;;19.27;52.86
59367;BME280;45163;47.690;11.770;2023-03-21T13:33:10;93111.03;;;19.44;54.39
59367;BME280;45163;47.690;11.770;2023-03-21T13:35:42;93103.69;;;19.24;53.41
59367;BME280;45163;47.690;11.770;2023-03-21T13:38:24;93105.97;;;19.31;53.93
59367;BME280;45163;47.690;11.770;2023-03-21T13:41:13;93105.28;;;18.99;54.80
59367;BME280;45163;47.690;11.770;2023-03-21T13:48:42;93102.78;;;19.55;50.27
59367;BME280;45163;47.690;11.770;2023-03-21T13:51:08;93095.59;;;19.14;51.46
59367;BME280;45163;47.690;11.770;2023-03-21T13:53:38;93098.78;;;18.38;50.16
59367;BME280;45163;47.690;11.770;2023-03-21T14:01:40;93086.22;;;18.37;51.84
59367;BME280;45163;47.690;11.770;2023-03-21T14:09:59;93079.22;;;18.10;50.72
59367;BME280;45163;47.690;11.770;2023-03-21T14:12:13;93085.00;;;18.12;50.42
59367;BME280;45163;47.690;11.770;2023-03-21T14:14:52;93080.84;;;17.97;51.86
59367;BME280;45163;47.690;11.770;2023-03-21T14:19:58;93088.75;;;17.63;53.22
59367;BME280;45163;47.690;11.770;2023-03-21T14:22:26;93090.84;;;17.07;54.49
59367;BME280;45163;47.690;11.770;2023-03-21T14:25:00;93081.03;;;16.85;55.05
59367;BME280;45163;47.690;11.770;2023-03-21T14:27:32;93071.31;;;16.90;55.33
59367;BME280;45163;47.690;11.770;2023-03-21T14:30:00;93079.06;;;17.27;55.82
59367;BME280;45163;47.690;11.770;2023-03-21T14:32:28;93073.47;;;16.65;54.58
59367;BME280;45163;47.690;11.770;2023-03-21T14:34:55;93073.25;;;16.69;56.02
59367;BME280;45163;47.690;11.770;2023-03-21T14:37:44;93075.16;;;16.78;56.20
59367;BME280;45163;47.690;11.770;2023-03-21T14:40:25;93069.72;;;16.48;55.30
59367;BME280;45163;47.690;11.770;2023-03-21T14:42:53;93062.50;;;16.36;56.26
59367;BME280;45163;47.690;11.770;2023-03-21T14:45:24;93061.50;;;16.18;59.84
59367;BME280;45163;47.690;11.770;2023-03-21T14:47:59;93061.00;;;16.35;61.26
59367;BME280;45163;47.690;11.770;2023-03-21T14:53:24;93058.44;;;16.16;58.46
59367;BME280;45163;47.690;11.770;2023-03-21T14:58:27;93060.72;;;15.74;60.10
59367;BME280;45163;47.690;11.770;2023-03-21T15:01:03;93067.84;;;15.65;59.71
59367;BME280;45163;47.690;11.770;2023-03-21T15:03:30;93066.75;;;15.63;59.21
59367;BME280;45163;47.690;11.770;2023-03-21T15:05:57;93072.06;;;15.52;58.59
59367;BME280;45163;47.690;11.770;2023-03-21T15:08:25;93067.16;;;15.56;59.17